sensor_id;sensor_type;location;lat;lon;timestamp;temperature;humidity
1413;DHT22;701;52.526;13.408;2022-09-21T00:00:33;9.40;51.70
1413;DHT22;701;52.526;13.408;2022-09-21T00:02:59;9.30;51.70
1413;DHT22;701;52.526;13.408;2022-09-21T00:05:25;9.40;51.90
1413;DHT22;701;52.526;13.408;2022-09-21T00:07:50;9.30;51.90
1413;DHT22;701;52.526;13.408;2022-09-21T00:10:17;9.30;51.80
1413;DHT22;701;52.526;13.408;2022-09-21T00:12:45;9.30;52.00
1413;DHT22;701;52.526;13.408;2022-09-21T00:15:11;9.30;52.10
1413;DHT22;701;52.526;13.408;2022-09-21T00:17:37;9.30;52.20
1413;DHT22;701;52.526;13.408;2022-09-21T00:20:03;9.30;52.20
1413;DHT22;701;52.526;13.408;2022-09-21T00:22:30;9.30;52.20
1413;DHT22;701;52.526;13.408;2022-09-21T00:24:56;9.30;52.30
1413;DHT22;701;52.526;13.408;2022-09-21T00:27:22;9.20;52.20
1413;DHT22;701;52.526;13.408;2022-09-21T00:30:04;9.20;52.10
1413;DHT22;701;52.526;13.408;2022-09-21T00:32:32;9.20;52.10
1413;DHT22;701;52.526;13.408;2022-09-21T00:34:59;9.20;52.20
1413;DHT22;701;52.526;13.408;2022-09-21T00:37:26;9.20;52.30
1413;DHT22;701;52.526;13.408;2022-09-21T00:39:52;9.20;52.40
1413;DHT22;701;52.526;13.408;2022-09-21T00:42:25;9.20;52.50
1413;DHT22;701;52.526;13.408;2022-09-21T00:44:51;9.10;52.40
1413;DHT22;701;52.526;13.408;2022-09-21T00:47:22;9.20;52.50
1413;DHT22;701;52.526;13.408;2022-09-21T00:49:52;9.10;52.30
1413;DHT22;701;52.526;13.408;2022-09-21T00:52:22;9.10;52.30
1413;DHT22;701;52.526;13.408;2022-09-21T00:55:04;9.10;52.40
1413;DHT22;701;52.526;13.408;2022-09-21T00:57:31;9.10;52.50
1413;DHT22;701;52.526;13.408;2022-09-21T01:00:01;9.10;52.50
1413;DHT22;701;52.526;13.408;2022-09-21T01:02:27;9.00;52.40
1413;DHT22;701;52.526;13.408;2022-09-21T01:04:54;9.10;52.60
1413;DHT22;701;52.526;13.408;2022-09-21T01:07:26;9.10;52.40
1413;DHT22;701;52.526;13.408;2022-09-21T01:09:56;9.00;52.70
1413;DHT22;701;52.526;13.408;2022-09-21T01:12:26;9.00;52.70
1413;DHT22;701;52.526;13.408;2022-09-21T01:17:57;9.00;52.60
1413;DHT22;701;52.526;13.408;2022-09-21T01:26:15;9.00;53.00
1413;DHT22;701;52.526;13.408;2022-09-21T01:28:57;9.00;53.00
1413;DHT22;701;52.526;13.408;2022-09-21T01:31:33;9.00;52.90
1413;DHT22;701;52.526;13.408;2022-09-21T01:34:06;9.00;52.90
1413;DHT22;701;52.526;13.408;2022-09-21T01:36:34;8.90;52.80
1413;DHT22;701;52.526;13.408;2022-09-21T01:39:08;9.00;52.90
1413;DHT22;701;52.526;13.408;2022-09-21T01:41:38;8.90;53.00
1413;DHT22;701;52.526;13.408;2022-09-21T01:44:12;8.90;53.30
1413;DHT22;701;52.526;13.408;2022-09-21T01:46:39;8.90;53.20
1413;DHT22;701;52.526;13.408;2022-09-21T01:49:18;8.90;53.30
1413;DHT22;701;52.526;13.408;2022-09-21T01:51:49;8.90;53.20
1413;DHT22;701;52.526;13.408;2022-09-21T01:54:22;8.90;53.20
1413;DHT22;701;52.526;13.408;2022-09-21T01:59:45;8.90;53.40
1413;DHT22;701;52.526;13.408;2022-09-21T02:02:18;8.80;53.20
1413;DHT22;701;52.526;13.408;2022-09-21T02:04:45;8.80;53.30
1413;DHT22;701;52.526;13.408;2022-09-21T02:07:11;8.80;53.30
1413;DHT22;701;52.526;13.408;2022-09-21T02:09:37;8.80;53.50
1413;DHT22;701;52.526;13.408;2022-09-21T02:12:03;8.80;53.70
1413;DHT22;701;52.526;13.408;2022-09-21T02:14:31;8.80;53.70
1413;DHT22;701;52.526;13.408;2022-09-21T02:22:31;8.80;53.70
1413;DHT22;701;52.526;13.408;2022-09-21T02:25:10;8.70;53.90
1413;DHT22;701;52.526;13.408;2022-09-21T02:30:26;8.80;54.00
1413;DHT22;701;52.526;13.408;2022-09-21T02:33:15;8.70;54.30
1413;DHT22;701;52.526;13.408;2022-09-21T02:41:09;8.70;54.40
1413;DHT22;701;52.526;13.408;2022-09-21T02:46:26;8.70;54.50
1413;DHT22;701;52.526;13.408;2022-09-21T02:51:46;8.70;54.90
1413;DHT22;701;52.526;13.408;2022-09-21T02:54:13;8.70;54.70
1413;DHT22;701;52.526;13.408;2022-09-21T02:56:41;8.70;54.60
1413;DHT22;701;52.526;13.408;2022-09-21T02:59:09;8.70;54.50
1413;DHT22;701;52.526;13.408;2022-09-21T03:01:35;8.70;54.60
1413;DHT22;701;52.526;13.408;2022-09-21T03:04:03;8.60;54.60
1413;DHT22;701;52.526;13.408;2022-09-21T03:06:29;8.60;54.70
1413;DHT22;701;52.526;13.408;2022-09-21T03:08:56;8.60;54.90
1413;DHT22;701;52.526;13.408;2022-09-21T03:11:23;8.60;55.00
1413;DHT22;701;52.526;13.408;2022-09-21T03:13:49;8.60;55.00
1413;DHT22;701;52.526;13.408;2022-09-21T03:16:14;8.60;55.20
1413;DHT22;701;52.526;13.408;2022-09-21T03:18:40;8.60;55.50
1413;DHT22;701;52.526;13.408;2022-09-21T03:21:09;8.60;55.70
1413;DHT22;701;52.526;13.408;2022-09-21T03:23:35;8.60;55.70
1413;DHT22;701;52.526;13.408;2022-09-21T03:26:01;8.60;55.90
1413;DHT22;701;52.526;13.408;2022-09-21T03:28:27;8.70;56.20
1413;DHT22;701;52.526;13.408;2022-09-21T03:30:53;8.70;56.40
1413;DHT22;701;52.526;13.408;2022-09-21T03:33:19;8.80;56.70
1413;DHT22;701;52.526;13.408;2022-09-21T03:35:47;8.80;56.40
1413;DHT22;701;52.526;13.408;2022-09-21T03:38:13;8.90;56.20
1413;DHT22;701;52.526;13.408;2022-09-21T03:40:38;8.90;55.90
1413;DHT22;701;52.526;13.408;2022-09-21T03:43:04;8.90;55.70
1413;DHT22;701;52.526;13.408;2022-09-21T03:45:29;9.00;55.50
1413;DHT22;701;52.526;13.408;2022-09-21T03:47:56;8.90;55.10
1413;DHT22;701;52.526;13.408;2022-09-21T03:50:24;9.00;55.10
1413;DHT22;701;52.526;13.408;2022-09-21T03:52:50;8.90;55.00
1413;DHT22;701;52.526;13.408;2022-09-21T03:55:15;8.90;55.00
1413;DHT22;701;52.526;13.408;2022-09-21T03:57:41;8.90;55.00
1413;DHT22;701;52.526;13.408;2022-09-21T04:00:08;8.90;55.00
1413;DHT22;701;52.526;13.408;2022-09-21T04:02:38;8.90;55.00
1413;DHT22;701;52.526;13.408;2022-09-21T04:05:08;8.90;55.00
1413;DHT22;701;52.526;13.408;2022-09-21T04:07:35;8.90;55.80
1413;DHT22;701;52.526;13.408;2022-09-21T04:10:03;8.80;55.10
1413;DHT22;701;52.526;13.408;2022-09-21T04:12:31;8.80;54.90
1413;DHT22;701;52.526;13.408;2022-09-21T04:14:57;8.80;54.90
1413;DHT22;701;52.526;13.408;2022-09-21T04:17:22;8.80;55.00
1413;DHT22;701;52.526;13.408;2022-09-21T04:19:49;8.80;55.00
1413;DHT22;701;52.526;13.408;2022-09-21T04:22:14;8.80;55.70
1413;DHT22;701;52.526;13.408;2022-09-21T04:24:40;8.80;55.20
1413;DHT22;701;52.526;13.408;2022-09-21T04:27:09;8.80;55.20
1413;DHT22;701;52.526;13.408;2022-09-21T04:29:36;8.80;55.20
1413;DHT22;701;52.526;13.408;2022-09-21T04:32:02;8.70;55.10
1413;DHT22;701;52.526;13.408;2022-09-21T04:34:28;8.70;55.20
1413;DHT22;701;52.526;13.408;2022-09-21T04:36:56;8.70;55.10
1413;DHT22;701;52.526;13.408;2022-09-21T04:39:23;8.60;55.00
1413;DHT22;701;52.526;13.408;2022-09-21T04:41:48;8.60;55.90
1413;DHT22;701;52.526;13.408;2022-09-21T04:44:14;8.70;55.30
1413;DHT22;701;52.526;13.408;2022-09-21T04:46:40;8.60;55.30
1413;DHT22;701;52.526;13.408;2022-09-21T04:49:06;8.60;55.40
1413;DHT22;701;52.526;13.408;2022-09-21T04:51:33;8.60;55.40
1413;DHT22;701;52.526;13.408;2022-09-21T04:53:59;8.60;55.40
1413;DHT22;701;52.526;13.408;2022-09-21T04:56:25;8.60;55.40
1413;DHT22;701;52.526;13.408;2022-09-21T04:58:50;8.60;55.50
1413;DHT22;701;52.526;13.408;2022-09-21T05:01:16;8.60;55.70
1413;DHT22;701;52.526;13.408;2022-09-21T05:03:42;8.60;55.80
1413;DHT22;701;52.526;13.408;2022-09-21T05:06:07;8.60;55.90
1413;DHT22;701;52.526;13.408;2022-09-21T05:08:35;8.60;55.90
1413;DHT22;701;52.526;13.408;2022-09-21T05:11:19;8.70;56.00
1413;DHT22;701;52.526;13.408;2022-09-21T05:13:45;8.70;56.10
1413;DHT22;701;52.526;13.408;2022-09-21T05:16:12;8.70;56.10
1413;DHT22;701;52.526;13.408;2022-09-21T05:18:38;8.70;56.10
1413;DHT22;701;52.526;13.408;2022-09-21T05:21:04;8.70;56.00
1413;DHT22;701;52.526;13.408;2022-09-21T05:23:31;8.70;56.00
1413;DHT22;701;52.526;13.408;2022-09-21T05:25:57;8.70;56.00
1413;DHT22;701;52.526;13.408;2022-09-21T05:28:24;8.80;56.10
1413;DHT22;701;52.526;13.408;2022-09-21T05:31:02;8.80;56.10
1413;DHT22;701;52.526;13.408;2022-09-21T05:33:29;8.80;56.00
1413;DHT22;701;52.526;13.408;2022-09-21T05:36:10;8.80;56.20
1413;DHT22;701;52.526;13.408;2022-09-21T05:38:43;8.90;56.10
1413;DHT22;701;52.526;13.408;2022-09-21T05:41:09;8.90;56.00
1413;DHT22;701;52.526;13.408;2022-09-21T05:43:34;8.90;55.90
1413;DHT22;701;52.526;13.408;2022-09-21T05:46:04;9.00;56.70
1413;DHT22;701;52.526;13.408;2022-09-21T05:48:39;9.00;56.10
1413;DHT22;701;52.526;13.408;2022-09-21T05:59:56;9.50;56.10
1413;DHT22;701;52.526;13.408;2022-09-21T06:05:19;9.90;55.40
1413;DHT22;701;52.526;13.408;2022-09-21T06:07:44;10.00;53.80
1413;DHT22;701;52.526;13.408;2022-09-21T06:10:13;10.20;53.70
1413;DHT22;701;52.526;13.408;2022-09-21T06:12:40;10.30;53.00
1413;DHT22;701;52.526;13.408;2022-09-21T06:15:09;10.40;52.40
1413;DHT22;701;52.526;13.408;2022-09-21T06:17:35;10.60;52.10
1413;DHT22;701;52.526;13.408;2022-09-21T06:20:01;10.70;51.40
1413;DHT22;701;52.526;13.408;2022-09-21T06:22:27;10.90;50.80
1413;DHT22;701;52.526;13.408;2022-09-21T06:24:53;11.00;49.80
1413;DHT22;701;52.526;13.408;2022-09-21T06:27:19;11.20;49.60
1413;DHT22;701;52.526;13.408;2022-09-21T06:29:45;11.30;49.50
1413;DHT22;701;52.526;13.408;2022-09-21T06:32:11;11.40;48.50
1413;DHT22;701;52.526;13.408;2022-09-21T06:34:36;11.60;47.90
1413;DHT22;701;52.526;13.408;2022-09-21T06:37:03;11.70;47.50
1413;DHT22;701;52.526;13.408;2022-09-21T06:39:28;11.80;46.70
1413;DHT22;701;52.526;13.408;2022-09-21T06:41:54;12.00;45.10
1413;DHT22;701;52.526;13.408;2022-09-21T06:44:24;12.10;44.20
1413;DHT22;701;52.526;13.408;2022-09-21T06:46:50;12.10;43.40
1413;DHT22;701;52.526;13.408;2022-09-21T06:49:15;12.20;42.90
1413;DHT22;701;52.526;13.408;2022-09-21T06:51:41;12.30;42.00
1413;DHT22;701;52.526;13.408;2022-09-21T06:54:08;12.40;42.10
1413;DHT22;701;52.526;13.408;2022-09-21T06:56:34;12.50;40.90
1413;DHT22;701;52.526;13.408;2022-09-21T06:59:00;12.60;40.30
1413;DHT22;701;52.526;13.408;2022-09-21T07:01:26;12.70;40.20
1413;DHT22;701;52.526;13.408;2022-09-21T07:03:52;12.90;39.20
1413;DHT22;701;52.526;13.408;2022-09-21T07:06:18;13.10;38.40
1413;DHT22;701;52.526;13.408;2022-09-21T07:08:46;13.20;36.10
1413;DHT22;701;52.526;13.408;2022-09-21T07:11:12;13.40;36.30
1413;DHT22;701;52.526;13.408;2022-09-21T07:13:39;13.50;35.00
1413;DHT22;701;52.526;13.408;2022-09-21T07:16:06;13.60;34.40
1413;DHT22;701;52.526;13.408;2022-09-21T07:18:35;13.80;34.50
1413;DHT22;701;52.526;13.408;2022-09-21T07:21:08;14.00;33.40
1413;DHT22;701;52.526;13.408;2022-09-21T07:23:35;14.10;32.30
1413;DHT22;701;52.526;13.408;2022-09-21T07:26:03;14.30;31.80
1413;DHT22;701;52.526;13.408;2022-09-21T07:28:29;14.40;30.50
1413;DHT22;701;52.526;13.408;2022-09-21T07:30:56;14.50;30.70
1413;DHT22;701;52.526;13.408;2022-09-21T07:33:22;14.70;30.10
1413;DHT22;701;52.526;13.408;2022-09-21T07:35:52;14.80;29.00
1413;DHT22;701;52.526;13.408;2022-09-21T07:38:18;14.90;28.20
1413;DHT22;701;52.526;13.408;2022-09-21T07:40:44;15.00;27.80
1413;DHT22;701;52.526;13.408;2022-09-21T07:43:10;15.00;27.30
1413;DHT22;701;52.526;13.408;2022-09-21T07:45:35;15.20;27.50
1413;DHT22;701;52.526;13.408;2022-09-21T07:48:06;15.30;27.10
1413;DHT22;701;52.526;13.408;2022-09-21T07:50:33;15.50;26.60
1413;DHT22;701;52.526;13.408;2022-09-21T07:53:00;15.70;25.80
1413;DHT22;701;52.526;13.408;2022-09-21T07:55:26;15.80;25.40
1413;DHT22;701;52.526;13.408;2022-09-21T07:57:52;16.00;25.10
1413;DHT22;701;52.526;13.408;2022-09-21T08:00:36;16.10;24.50
1413;DHT22;701;52.526;13.408;2022-09-21T08:03:03;16.20;24.00
1413;DHT22;701;52.526;13.408;2022-09-21T08:05:30;16.30;23.50
1413;DHT22;701;52.526;13.408;2022-09-21T08:07:56;16.40;23.30
1413;DHT22;701;52.526;13.408;2022-09-21T08:10:22;16.60;23.10
1413;DHT22;701;52.526;13.408;2022-09-21T08:12:48;16.70;22.60
1413;DHT22;701;52.526;13.408;2022-09-21T08:15:14;16.80;22.50
1413;DHT22;701;52.526;13.408;2022-09-21T08:17:40;17.00;21.90
1413;DHT22;701;52.526;13.408;2022-09-21T08:20:06;17.10;21.60
1413;DHT22;701;52.526;13.408;2022-09-21T08:22:32;17.30;21.70
1413;DHT22;701;52.526;13.408;2022-09-21T08:24:57;17.50;21.00
1413;DHT22;701;52.526;13.408;2022-09-21T08:27:23;17.50;20.60
1413;DHT22;701;52.526;13.408;2022-09-21T08:29:50;17.60;20.30
1413;DHT22;701;52.526;13.408;2022-09-21T08:32:16;17.60;20.10
1413;DHT22;701;52.526;13.408;2022-09-21T08:34:42;17.70;19.90
1413;DHT22;701;52.526;13.408;2022-09-21T08:37:08;17.70;19.60
1413;DHT22;701;52.526;13.408;2022-09-21T08:39:33;17.70;19.20
1413;DHT22;701;52.526;13.408;2022-09-21T08:44:46;17.80;18.60
1413;DHT22;701;52.526;13.408;2022-09-21T08:50:00;18.10;18.60
1413;DHT22;701;52.526;13.408;2022-09-21T08:52:27;18.20;18.70
1413;DHT22;701;52.526;13.408;2022-09-21T08:54:57;18.40;18.80
1413;DHT22;701;52.526;13.408;2022-09-21T08:57:28;18.50;18.10
1413;DHT22;701;52.526;13.408;2022-09-21T08:59:54;18.60;17.50
1413;DHT22;701;52.526;13.408;2022-09-21T09:02:40;18.80;17.50
1413;DHT22;701;52.526;13.408;2022-09-21T09:05:17;18.90;17.10
1413;DHT22;701;52.526;13.408;2022-09-21T09:10:43;19.40;16.20
1413;DHT22;701;52.526;13.408;2022-09-21T09:13:42;19.60;15.90
1413;DHT22;701;52.526;13.408;2022-09-21T09:18:51;20.00;15.10
1413;DHT22;701;52.526;13.408;2022-09-21T09:21:39;20.30;14.60
1413;DHT22;701;52.526;13.408;2022-09-21T09:25:02;20.60;13.80
1413;DHT22;701;52.526;13.408;2022-09-21T09:30:20;21.30;13.20
1413;DHT22;701;52.526;13.408;2022-09-21T09:33:10;21.40;12.20
1413;DHT22;701;52.526;13.408;2022-09-21T09:35:51;21.60;11.70
1413;DHT22;701;52.526;13.408;2022-09-21T09:38:38;21.60;11.30
1413;DHT22;701;52.526;13.408;2022-09-21T09:44:33;21.00;11.40
1413;DHT22;701;52.526;13.408;2022-09-21T09:52:48;21.50;11.30
1413;DHT22;701;52.526;13.408;2022-09-21T09:55:27;22.00;11.60
1413;DHT22;701;52.526;13.408;2022-09-21T09:57:57;22.50;10.20
1413;DHT22;701;52.526;13.408;2022-09-21T10:00:23;22.70;9.90
1413;DHT22;701;52.526;13.408;2022-09-21T10:02:54;23.00;9.40
1413;DHT22;701;52.526;13.408;2022-09-21T10:05:35;23.30;8.90
1413;DHT22;701;52.526;13.408;2022-09-21T10:08:05;23.80;7.80
1413;DHT22;701;52.526;13.408;2022-09-21T10:10:50;24.20;7.40
1413;DHT22;701;52.526;13.408;2022-09-21T10:15:52;24.80;5.80
1413;DHT22;701;52.526;13.408;2022-09-21T10:18:19;25.00;5.40
1413;DHT22;701;52.526;13.408;2022-09-21T10:20:56;25.20;5.00
1413;DHT22;701;52.526;13.408;2022-09-21T10:23:23;25.20;4.00
1413;DHT22;701;52.526;13.408;2022-09-21T10:26:06;25.20;4.00
1413;DHT22;701;52.526;13.408;2022-09-21T10:28:33;25.20;3.70
1413;DHT22;701;52.526;13.408;2022-09-21T10:36:34;25.90;1.40
1413;DHT22;701;52.526;13.408;2022-09-21T10:41:57;26.50;1.00
1413;DHT22;701;52.526;13.408;2022-09-21T10:44:40;26.70;1.00
1413;DHT22;701;52.526;13.408;2022-09-21T10:47:32;27.00;1.00
1413;DHT22;701;52.526;13.408;2022-09-21T10:50:01;26.80;1.00
1413;DHT22;701;52.526;13.408;2022-09-21T10:52:34;26.40;1.00
1413;DHT22;701;52.526;13.408;2022-09-21T10:55:00;25.80;1.00
1413;DHT22;701;52.526;13.408;2022-09-21T10:57:28;25.30;1.00
1413;DHT22;701;52.526;13.408;2022-09-21T10:59:54;24.90;1.00
1413;DHT22;701;52.526;13.408;2022-09-21T11:05:07;24.00;1.50
1413;DHT22;701;52.526;13.408;2022-09-21T11:07:40;23.50;2.30
1413;DHT22;701;52.526;13.408;2022-09-21T11:18:21;22.00;3.90
1413;DHT22;701;52.526;13.408;2022-09-21T11:21:15;21.90;3.10
1413;DHT22;701;52.526;13.408;2022-09-21T11:26:44;22.10;3.60
1413;DHT22;701;52.526;13.408;2022-09-21T11:29:17;22.20;3.90
1413;DHT22;701;52.526;13.408;2022-09-21T11:32:03;22.20;4.10
1413;DHT22;701;52.526;13.408;2022-09-21T11:49:30;21.80;4.30
1413;DHT22;701;52.526;13.408;2022-09-21T11:54:14;21.30;5.00
1413;DHT22;701;52.526;13.408;2022-09-21T11:56:49;21.10;5.30
1413;DHT22;701;52.526;13.408;2022-09-21T12:05:18;20.80;5.10
1413;DHT22;701;52.526;13.408;2022-09-21T12:08:14;20.60;5.70
1413;DHT22;701;52.526;13.408;2022-09-21T12:16:24;20.10;7.10
1413;DHT22;701;52.526;13.408;2022-09-21T12:21:27;19.60;7.30
1413;DHT22;701;52.526;13.408;2022-09-21T12:23:56;19.40;7.20
1413;DHT22;701;52.526;13.408;2022-09-21T12:26:41;19.20;7.10
1413;DHT22;701;52.526;13.408;2022-09-21T12:29:16;19.00;7.20
1413;DHT22;701;52.526;13.408;2022-09-21T12:31:56;18.90;7.60
1413;DHT22;701;52.526;13.408;2022-09-21T12:34:26;18.80;7.70
1413;DHT22;701;52.526;13.408;2022-09-21T12:37:03;18.70;8.10
1413;DHT22;701;52.526;13.408;2022-09-21T12:39:40;18.70;8.40
1413;DHT22;701;52.526;13.408;2022-09-21T12:42:31;18.70;8.30
1413;DHT22;701;52.526;13.408;2022-09-21T12:45:40;18.60;8.60
1413;DHT22;701;52.526;13.408;2022-09-21T12:48:19;18.70;9.30
1413;DHT22;701;52.526;13.408;2022-09-21T12:50:55;18.80;9.30
1413;DHT22;701;52.526;13.408;2022-09-21T12:53:29;19.00;9.30
1413;DHT22;701;52.526;13.408;2022-09-21T12:56:11;19.20;9.20
1413;DHT22;701;52.526;13.408;2022-09-21T13:01:50;19.50;8.80
1413;DHT22;701;52.526;13.408;2022-09-21T13:07:38;19.40;8.10
1413;DHT22;701;52.526;13.408;2022-09-21T13:10:15;19.30;7.90
1413;DHT22;701;52.526;13.408;2022-09-21T13:12:45;19.20;7.90
1413;DHT22;701;52.526;13.408;2022-09-21T13:15:20;19.20;7.90
1413;DHT22;701;52.526;13.408;2022-09-21T13:18:00;19.20;7.90
1413;DHT22;701;52.526;13.408;2022-09-21T13:20:35;19.20;7.90
1413;DHT22;701;52.526;13.408;2022-09-21T13:23:02;19.20;7.90
1413;DHT22;701;52.526;13.408;2022-09-21T13:25:30;19.20;6.90
1413;DHT22;701;52.526;13.408;2022-09-21T13:30:38;19.20;6.80
1413;DHT22;701;52.526;13.408;2022-09-21T13:38:27;19.40;8.10
1413;DHT22;701;52.526;13.408;2022-09-21T13:41:03;19.30;8.00
1413;DHT22;701;52.526;13.408;2022-09-21T13:49:27;18.90;8.80
1413;DHT22;701;52.526;13.408;2022-09-21T13:54:57;18.80;9.00
1413;DHT22;701;52.526;13.408;2022-09-21T13:57:44;18.90;9.00
1413;DHT22;701;52.526;13.408;2022-09-21T14:03:02;19.00;8.50
1413;DHT22;701;52.526;13.408;2022-09-21T14:05:33;19.10;8.40
1413;DHT22;701;52.526;13.408;2022-09-21T14:08:16;19.10;8.10
1413;DHT22;701;52.526;13.408;2022-09-21T14:11:09;19.20;7.90
1413;DHT22;701;52.526;13.408;2022-09-21T14:19:04;19.40;6.40
1413;DHT22;701;52.526;13.408;2022-09-21T14:24:43;19.40;6.50
1413;DHT22;701;52.526;13.408;2022-09-21T14:35:17;19.60;6.30
1413;DHT22;701;52.526;13.408;2022-09-21T14:38:12;19.60;6.60
1413;DHT22;701;52.526;13.408;2022-09-21T14:40:45;19.50;6.50
1413;DHT22;701;52.526;13.408;2022-09-21T14:43:19;19.30;6.00
1413;DHT22;701;52.526;13.408;2022-09-21T14:46:03;19.10;6.00
1413;DHT22;701;52.526;13.408;2022-09-21T15:02:16;18.90;6.40
1413;DHT22;701;52.526;13.408;2022-09-21T15:07:36;19.00;6.20
1413;DHT22;701;52.526;13.408;2022-09-21T15:10:26;19.00;6.50
1413;DHT22;701;52.526;13.408;2022-09-21T15:18:45;18.80;7.20
1413;DHT22;701;52.526;13.408;2022-09-21T15:23:51;18.60;7.30
1413;DHT22;701;52.526;13.408;2022-09-21T15:26:22;18.50;7.50
1413;DHT22;701;52.526;13.408;2022-09-21T15:28:56;18.40;7.40
1413;DHT22;701;52.526;13.408;2022-09-21T15:31:23;18.20;7.00
1413;DHT22;701;52.526;13.408;2022-09-21T15:33:50;18.20;7.30
1413;DHT22;701;52.526;13.408;2022-09-21T15:36:25;18.10;7.20
1413;DHT22;701;52.526;13.408;2022-09-21T15:38:52;18.00;7.10
1413;DHT22;701;52.526;13.408;2022-09-21T15:41:42;17.90;7.30
1413;DHT22;701;52.526;13.408;2022-09-21T15:46:40;17.70;7.80
1413;DHT22;701;52.526;13.408;2022-09-21T15:49:15;17.60;7.80
1413;DHT22;701;52.526;13.408;2022-09-21T15:51:49;17.50;7.90
1413;DHT22;701;52.526;13.408;2022-09-21T15:54:43;17.40;8.00
1413;DHT22;701;52.526;13.408;2022-09-21T15:57:33;17.30;8.00
1413;DHT22;701;52.526;13.408;2022-09-21T16:00:04;17.20;8.10
1413;DHT22;701;52.526;13.408;2022-09-21T16:02:35;17.20;8.30
1413;DHT22;701;52.526;13.408;2022-09-21T16:05:01;17.10;8.40
1413;DHT22;701;52.526;13.408;2022-09-21T16:07:33;17.00;8.50
1413;DHT22;701;52.526;13.408;2022-09-21T16:10:00;16.90;8.70
1413;DHT22;701;52.526;13.408;2022-09-21T16:12:37;16.90;8.70
1413;DHT22;701;52.526;13.408;2022-09-21T16:15:14;16.80;8.80
1413;DHT22;701;52.526;13.408;2022-09-21T16:17:59;16.70;8.90
1413;DHT22;701;52.526;13.408;2022-09-21T16:20:46;16.60;9.80
1413;DHT22;701;52.526;13.408;2022-09-21T16:23:20;16.50;9.50
1413;DHT22;701;52.526;13.408;2022-09-21T16:25:58;16.50;9.90
1413;DHT22;701;52.526;13.408;2022-09-21T16:28:38;16.40;10.00
1413;DHT22;701;52.526;13.408;2022-09-21T16:31:26;16.40;9.90
1413;DHT22;701;52.526;13.408;2022-09-21T16:38:49;16.20;10.40
1413;DHT22;701;52.526;13.408;2022-09-21T16:41:18;16.10;10.60
1413;DHT22;701;52.526;13.408;2022-09-21T16:43:46;16.00;10.90
1413;DHT22;701;52.526;13.408;2022-09-21T16:46:12;15.90;11.10
1413;DHT22;701;52.526;13.408;2022-09-21T16:48:38;15.90;11.30
1413;DHT22;701;52.526;13.408;2022-09-21T16:51:14;15.80;11.40
1413;DHT22;701;52.526;13.408;2022-09-21T16:53:42;15.80;11.70
1413;DHT22;701;52.526;13.408;2022-09-21T16:56:11;15.70;11.60
1413;DHT22;701;52.526;13.408;2022-09-21T16:58:38;15.60;11.90
1413;DHT22;701;52.526;13.408;2022-09-21T17:01:07;15.60;12.10
1413;DHT22;701;52.526;13.408;2022-09-21T17:03:34;15.50;12.20
1413;DHT22;701;52.526;13.408;2022-09-21T17:06:00;15.40;12.40
1413;DHT22;701;52.526;13.408;2022-09-21T17:08:26;15.30;12.70
1413;DHT22;701;52.526;13.408;2022-09-21T17:10:54;15.20;12.90
1413;DHT22;701;52.526;13.408;2022-09-21T17:13:20;15.20;12.90
1413;DHT22;701;52.526;13.408;2022-09-21T17:15:47;15.10;13.10
1413;DHT22;701;52.526;13.408;2022-09-21T17:18:13;15.00;13.50
1413;DHT22;701;52.526;13.408;2022-09-21T17:20:41;14.90;13.70
1413;DHT22;701;52.526;13.408;2022-09-21T17:23:08;14.80;14.00
1413;DHT22;701;52.526;13.408;2022-09-21T17:25:34;14.80;14.30
1413;DHT22;701;52.526;13.408;2022-09-21T17:28:01;14.70;14.50
1413;DHT22;701;52.526;13.408;2022-09-21T17:30:28;14.60;14.90
1413;DHT22;701;52.526;13.408;2022-09-21T17:32:54;14.50;15.10
1413;DHT22;701;52.526;13.408;2022-09-21T17:35:37;14.40;15.60
1413;DHT22;701;52.526;13.408;2022-09-21T17:38:04;14.30;16.10
1413;DHT22;701;52.526;13.408;2022-09-21T17:40:30;14.20;16.00
1413;DHT22;701;52.526;13.408;2022-09-21T17:43:19;14.10;16.00
1413;DHT22;701;52.526;13.408;2022-09-21T17:46:00;14.10;16.40
1413;DHT22;701;52.526;13.408;2022-09-21T17:48:29;13.90;16.50
1413;DHT22;701;52.526;13.408;2022-09-21T17:50:55;13.90;16.60
1413;DHT22;701;52.526;13.408;2022-09-21T17:53:21;13.80;17.00
1413;DHT22;701;52.526;13.408;2022-09-21T17:56:22;13.80;17.30
1413;DHT22;701;52.526;13.408;2022-09-21T17:59:00;13.70;17.90
1413;DHT22;701;52.526;13.408;2022-09-21T18:01:34;13.60;18.00
1413;DHT22;701;52.526;13.408;2022-09-21T18:04:08;13.60;18.40
1413;DHT22;701;52.526;13.408;2022-09-21T18:06:37;13.50;18.30
1413;DHT22;701;52.526;13.408;2022-09-21T18:09:03;13.50;18.40
1413;DHT22;701;52.526;13.408;2022-09-21T18:14:39;13.40;19.10
1413;DHT22;701;52.526;13.408;2022-09-21T18:17:37;13.30;19.10
1413;DHT22;701;52.526;13.408;2022-09-21T18:20:33;13.30;19.60
1413;DHT22;701;52.526;13.408;2022-09-21T18:25:36;13.10;19.60
1413;DHT22;701;52.526;13.408;2022-09-21T18:28:35;13.10;20.10
1413;DHT22;701;52.526;13.408;2022-09-21T18:34:12;13.00;20.30
1413;DHT22;701;52.526;13.408;2022-09-21T18:42:39;12.90;20.80
1413;DHT22;701;52.526;13.408;2022-09-21T18:45:29;12.80;20.90
1413;DHT22;701;52.526;13.408;2022-09-21T18:56:01;12.70;21.80
1413;DHT22;701;52.526;13.408;2022-09-21T18:58:27;12.60;21.60
1413;DHT22;701;52.526;13.408;2022-09-21T19:00:55;12.60;22.10
1413;DHT22;701;52.526;13.408;2022-09-21T19:03:21;12.60;22.20
1413;DHT22;701;52.526;13.408;2022-09-21T19:06:18;12.50;22.10
1413;DHT22;701;52.526;13.408;2022-09-21T19:11:38;12.50;22.90
1413;DHT22;701;52.526;13.408;2022-09-21T19:14:14;12.40;23.30
1413;DHT22;701;52.526;13.408;2022-09-21T19:16:50;12.40;23.30
1413;DHT22;701;52.526;13.408;2022-09-21T19:21:57;12.40;23.30
1413;DHT22;701;52.526;13.408;2022-09-21T19:24:30;12.30;23.40
1413;DHT22;701;52.526;13.408;2022-09-21T19:32:44;12.40;23.40
1413;DHT22;701;52.526;13.408;2022-09-21T19:35:18;12.40;23.30
1413;DHT22;701;52.526;13.408;2022-09-21T19:37:45;12.30;23.50
1413;DHT22;701;52.526;13.408;2022-09-21T19:40:13;12.30;23.50
1413;DHT22;701;52.526;13.408;2022-09-21T19:42:50;12.20;23.50
1413;DHT22;701;52.526;13.408;2022-09-21T19:45:46;12.20;23.50
1413;DHT22;701;52.526;13.408;2022-09-21T19:48:15;12.20;23.70
1413;DHT22;701;52.526;13.408;2022-09-21T19:50:53;12.20;23.70
1413;DHT22;701;52.526;13.408;2022-09-21T19:53:21;12.20;23.80
1413;DHT22;701;52.526;13.408;2022-09-21T19:56:13;12.20;24.00
1413;DHT22;701;52.526;13.408;2022-09-21T19:58:58;12.10;24.00
1413;DHT22;701;52.526;13.408;2022-09-21T20:01:52;12.10;24.50
1413;DHT22;701;52.526;13.408;2022-09-21T20:04:42;12.10;24.10
1413;DHT22;701;52.526;13.408;2022-09-21T20:10:34;12.00;24.40
1413;DHT22;701;52.526;13.408;2022-09-21T20:13:28;12.00;24.40
1413;DHT22;701;52.526;13.408;2022-09-21T20:16:15;11.90;24.30
1413;DHT22;701;52.526;13.408;2022-09-21T20:18:53;11.80;24.40
1413;DHT22;701;52.526;13.408;2022-09-21T20:21:21;11.80;24.70
1413;DHT22;701;52.526;13.408;2022-09-21T20:23:54;11.70;24.70
1413;DHT22;701;52.526;13.408;2022-09-21T20:26:24;11.80;25.30
1413;DHT22;701;52.526;13.408;2022-09-21T20:28:51;11.80;25.20
1413;DHT22;701;52.526;13.408;2022-09-21T20:31:22;11.80;25.30
1413;DHT22;701;52.526;13.408;2022-09-21T20:33:48;11.80;25.30